sensor_id;sensor_type;location;lat;lon;timestamp;P1;durP1;ratioP1;P2;durP2;ratioP2
17436;SDS011;70275;52.198;5.422;2023-06-24T00:00:42;17.38;;;15.57;;
17436;SDS011;70275;52.198;5.422;2023-06-24T00:03:11;17.70;;;14.60;;
17436;SDS011;70275;52.198;5.422;2023-06-24T00:05:44;15.07;;;13.43;;
17436;SDS011;70275;52.198;5.422;2023-06-24T00:08:14;16.90;;;15.10;;
17436;SDS011;70275;52.198;5.422;2023-06-24T00:10:44;16.77;;;15.13;;
17436;SDS011;70275;52.198;5.422;2023-06-24T00:13:13;18.27;;;14.88;;
17436;SDS011;70275;52.198;5.422;2023-06-24T00:15:44;16.90;;;15.10;;
17436;SDS011;70275;52.198;5.422;2023-06-24T00:18:13;18.60;;;16.42;;
17436;SDS011;70275;52.198;5.422;2023-06-24T00:20:44;17.55;;;15.75;;
17436;SDS011;70275;52.198;5.422;2023-06-24T00:23:14;18.08;;;16.27;;
17436;SDS011;70275;52.198;5.422;2023-06-24T00:25:51;18.08;;;16.02;;
17436;SDS011;70275;52.198;5.422;2023-06-24T00:28:21;19.52;;;16.60;;
17436;SDS011;70275;52.198;5.422;2023-06-24T00:30:50;17.33;;;15.60;;
17436;SDS011;70275;52.198;5.422;2023-06-24T00:33:20;17.77;;;15.70;;
17436;SDS011;70275;52.198;5.422;2023-06-24T00:35:52;18.38;;;16.58;;
17436;SDS011;70275;52.198;5.422;2023-06-24T00:38:22;17.73;;;15.95;;
17436;SDS011;70275;52.198;5.422;2023-06-24T00:40:51;19.75;;;17.63;;
17436;SDS011;70275;52.198;5.422;2023-06-24T00:43:20;20.65;;;18.45;;
17436;SDS011;70275;52.198;5.422;2023-06-24T00:45:52;17.23;;;15.05;;
17436;SDS011;70275;52.198;5.422;2023-06-24T00:48:21;18.75;;;16.55;;
17436;SDS011;70275;52.198;5.422;2023-06-24T00:50:54;18.70;;;16.60;;
17436;SDS011;70275;52.198;5.422;2023-06-24T00:53:23;16.65;;;14.65;;
17436;SDS011;70275;52.198;5.422;2023-06-24T00:55:52;18.02;;;15.90;;
17436;SDS011;70275;52.198;5.422;2023-06-24T00:58:27;16.20;;;14.05;;
17436;SDS011;70275;52.198;5.422;2023-06-24T01:00:57;15.25;;;13.27;;
17436;SDS011;70275;52.198;5.422;2023-06-24T01:03:27;16.05;;;14.27;;
17436;SDS011;70275;52.198;5.422;2023-06-24T01:06:01;15.57;;;13.98;;
17436;SDS011;70275;52.198;5.422;2023-06-24T01:08:30;16.50;;;14.50;;
17436;SDS011;70275;52.198;5.422;2023-06-24T01:11:00;16.27;;;14.55;;
17436;SDS011;70275;52.198;5.422;2023-06-24T01:13:29;15.43;;;13.75;;
17436;SDS011;70275;52.198;5.422;2023-06-24T01:15:59;16.52;;;14.02;;
17436;SDS011;70275;52.198;5.422;2023-06-24T01:18:39;17.80;;;14.48;;
17436;SDS011;70275;52.198;5.422;2023-06-24T01:21:22;16.77;;;13.88;;
17436;SDS011;70275;52.198;5.422;2023-06-24T01:24:19;15.65;;;14.05;;
17436;SDS011;70275;52.198;5.422;2023-06-24T01:27:19;16.85;;;14.98;;
17436;SDS011;70275;52.198;5.422;2023-06-24T01:30:15;15.68;;;13.70;;
17436;SDS011;70275;52.198;5.422;2023-06-24T01:33:08;17.98;;;15.30;;
17436;SDS011;70275;52.198;5.422;2023-06-24T01:35:43;15.88;;;14.13;;
17436;SDS011;70275;52.198;5.422;2023-06-24T01:38:18;16.42;;;14.80;;
17436;SDS011;70275;52.198;5.422;2023-06-24T01:40:56;18.83;;;15.77;;
17436;SDS011;70275;52.198;5.422;2023-06-24T01:43:28;18.38;;;15.25;;
17436;SDS011;70275;52.198;5.422;2023-06-24T01:46:01;17.20;;;15.43;;
17436;SDS011;70275;52.198;5.422;2023-06-24T01:48:37;16.58;;;14.93;;
17436;SDS011;70275;52.198;5.422;2023-06-24T01:51:13;17.92;;;16.13;;
17436;SDS011;70275;52.198;5.422;2023-06-24T01:53:49;18.50;;;16.60;;
17436;SDS011;70275;52.198;5.422;2023-06-24T01:56:23;19.02;;;17.13;;
17436;SDS011;70275;52.198;5.422;2023-06-24T01:58:55;17.98;;;16.27;;
17436;SDS011;70275;52.198;5.422;2023-06-24T02:01:30;18.58;;;16.48;;
17436;SDS011;70275;52.198;5.422;2023-06-24T02:04:06;20.55;;;17.17;;
17436;SDS011;70275;52.198;5.422;2023-06-24T02:06:38;18.25;;;16.45;;
17436;SDS011;70275;52.198;5.422;2023-06-24T02:09:09;18.98;;;17.08;;
17436;SDS011;70275;52.198;5.422;2023-06-24T02:11:39;19.90;;;17.02;;
17436;SDS011;70275;52.198;5.422;2023-06-24T02:14:10;18.55;;;16.48;;
17436;SDS011;70275;52.198;5.422;2023-06-24T02:16:44;18.83;;;16.75;;
17436;SDS011;70275;52.198;5.422;2023-06-24T02:19:18;19.58;;;17.15;;
17436;SDS011;70275;52.198;5.422;2023-06-24T02:21:48;18.13;;;16.27;;
17436;SDS011;70275;52.198;5.422;2023-06-24T02:24:20;21.33;;;17.08;;
17436;SDS011;70275;52.198;5.422;2023-06-24T02:26:51;17.95;;;16.10;;
17436;SDS011;70275;52.198;5.422;2023-06-24T02:29:22;17.25;;;15.48;;
17436;SDS011;70275;52.198;5.422;2023-06-24T02:31:55;19.40;;;16.65;;
17436;SDS011;70275;52.198;5.422;2023-06-24T02:34:27;19.15;;;16.60;;
17436;SDS011;70275;52.198;5.422;2023-06-24T02:36:56;18.45;;;16.30;;
17436;SDS011;70275;52.198;5.422;2023-06-24T02:39:26;20.58;;;17.77;;
17436;SDS011;70275;52.198;5.422;2023-06-24T02:41:55;21.13;;;17.60;;
17436;SDS011;70275;52.198;5.422;2023-06-24T02:44:24;19.08;;;16.88;;
17436;SDS011;70275;52.198;5.422;2023-06-24T02:46:53;20.63;;;18.25;;
17436;SDS011;70275;52.198;5.422;2023-06-24T02:49:23;19.15;;;17.17;;
17436;SDS011;70275;52.198;5.422;2023-06-24T02:51:58;19.13;;;17.10;;
17436;SDS011;70275;52.198;5.422;2023-06-24T02:54:27;26.55;;;22.80;;
17436;SDS011;70275;52.198;5.422;2023-06-24T02:56:57;31.70;;;25.15;;
17436;SDS011;70275;52.198;5.422;2023-06-24T02:59:27;19.92;;;17.83;;
17436;SDS011;70275;52.198;5.422;2023-06-24T03:01:56;17.92;;;16.13;;
17436;SDS011;70275;52.198;5.422;2023-06-24T03:04:28;19.40;;;16.52;;
17436;SDS011;70275;52.198;5.422;2023-06-24T03:06:58;17.58;;;15.75;;
17436;SDS011;70275;52.198;5.422;2023-06-24T03:09:31;19.17;;;17.17;;
17436;SDS011;70275;52.198;5.422;2023-06-24T03:12:03;17.65;;;15.73;;
17436;SDS011;70275;52.198;5.422;2023-06-24T03:14:34;18.35;;;16.23;;
17436;SDS011;70275;52.198;5.422;2023-06-24T03:17:03;17.73;;;15.85;;
17436;SDS011;70275;52.198;5.422;2023-06-24T03:19:36;19.52;;;17.42;;
17436;SDS011;70275;52.198;5.422;2023-06-24T03:22:05;18.33;;;15.75;;
17436;SDS011;70275;52.198;5.422;2023-06-24T03:24:34;17.48;;;15.57;;
17436;SDS011;70275;52.198;5.422;2023-06-24T03:27:03;18.42;;;16.45;;
17436;SDS011;70275;52.198;5.422;2023-06-24T03:29:32;18.75;;;16.75;;
17436;SDS011;70275;52.198;5.422;2023-06-24T03:32:01;18.30;;;15.95;;
17436;SDS011;70275;52.198;5.422;2023-06-24T03:34:31;19.00;;;16.98;;
17436;SDS011;70275;52.198;5.422;2023-06-24T03:37:03;19.15;;;17.20;;
17436;SDS011;70275;52.198;5.422;2023-06-24T03:39:33;18.13;;;16.13;;
17436;SDS011;70275;52.198;5.422;2023-06-24T03:42:02;18.50;;;16.52;;
17436;SDS011;70275;52.198;5.422;2023-06-24T03:44:32;17.15;;;15.35;;
17436;SDS011;70275;52.198;5.422;2023-06-24T03:47:01;18.50;;;16.58;;
17436;SDS011;70275;52.198;5.422;2023-06-24T03:49:30;17.50;;;15.65;;
17436;SDS011;70275;52.198;5.422;2023-06-24T03:51:59;19.15;;;17.15;;
17436;SDS011;70275;52.198;5.422;2023-06-24T03:54:34;18.73;;;16.77;;
17436;SDS011;70275;52.198;5.422;2023-06-24T03:57:04;19.88;;;16.55;;
17436;SDS011;70275;52.198;5.422;2023-06-24T03:59:35;20.10;;;17.95;;
17436;SDS011;70275;52.198;5.422;2023-06-24T04:02:04;19.75;;;15.98;;
17436;SDS011;70275;52.198;5.422;2023-06-24T04:04:35;20.13;;;17.20;;
17436;SDS011;70275;52.198;5.422;2023-06-24T04:07:06;19.33;;;17.35;;
17436;SDS011;70275;52.198;5.422;2023-06-24T04:09:35;20.98;;;17.15;;
17436;SDS011;70275;52.198;5.422;2023-06-24T04:12:05;20.08;;;18.00;;
17436;SDS011;70275;52.198;5.422;2023-06-24T04:14:35;19.00;;;16.60;;
17436;SDS011;70275;52.198;5.422;2023-06-24T04:17:04;20.85;;;16.98;;
17436;SDS011;70275;52.198;5.422;2023-06-24T04:19:33;19.95;;;17.88;;
17436;SDS011;70275;52.198;5.422;2023-06-24T04:22:02;19.90;;;17.75;;
17436;SDS011;70275;52.198;5.422;2023-06-24T04:24:34;20.23;;;17.77;;
17436;SDS011;70275;52.198;5.422;2023-06-24T04:27:03;20.48;;;17.88;;
17436;SDS011;70275;52.198;5.422;2023-06-24T04:29:35;23.67;;;17.27;;
17436;SDS011;70275;52.198;5.422;2023-06-24T04:32:04;19.48;;;17.38;;
17436;SDS011;70275;52.198;5.422;2023-06-24T04:34:34;19.15;;;17.17;;
17436;SDS011;70275;52.198;5.422;2023-06-24T04:37:05;20.40;;;17.38;;
17436;SDS011;70275;52.198;5.422;2023-06-24T04:39:37;18.38;;;16.40;;
17436;SDS011;70275;52.198;5.422;2023-06-24T04:42:06;18.38;;;16.50;;
17436;SDS011;70275;52.198;5.422;2023-06-24T04:44:35;18.33;;;16.33;;
17436;SDS011;70275;52.198;5.422;2023-06-24T04:47:05;16.38;;;14.68;;
17436;SDS011;70275;52.198;5.422;2023-06-24T04:49:34;18.30;;;16.42;;
17436;SDS011;70275;52.198;5.422;2023-06-24T04:52:03;18.30;;;14.10;;
17436;SDS011;70275;52.198;5.422;2023-06-24T04:54:37;15.70;;;13.80;;
17436;SDS011;70275;52.198;5.422;2023-06-24T04:57:08;14.75;;;13.25;;
17436;SDS011;70275;52.198;5.422;2023-06-24T04:59:50;15.00;;;12.98;;
17436;SDS011;70275;52.198;5.422;2023-06-24T05:02:19;14.20;;;12.73;;
17436;SDS011;70275;52.198;5.422;2023-06-24T05:04:48;15.40;;;12.98;;
17436;SDS011;70275;52.198;5.422;2023-06-24T05:07:17;15.32;;;13.82;;
17436;SDS011;70275;52.198;5.422;2023-06-24T05:09:49;14.55;;;13.02;;
17436;SDS011;70275;52.198;5.422;2023-06-24T05:12:19;15.52;;;13.88;;
17436;SDS011;70275;52.198;5.422;2023-06-24T05:14:49;13.80;;;11.65;;
17436;SDS011;70275;52.198;5.422;2023-06-24T05:17:19;12.48;;;11.25;;
17436;SDS011;70275;52.198;5.422;2023-06-24T05:19:49;13.32;;;11.85;;
17436;SDS011;70275;52.198;5.422;2023-06-24T05:22:17;9.88;;;8.75;;
17436;SDS011;70275;52.198;5.422;2023-06-24T05:24:49;8.70;;;7.82;;
17436;SDS011;70275;52.198;5.422;2023-06-24T05:27:18;8.55;;;7.28;;
17436;SDS011;70275;52.198;5.422;2023-06-24T05:29:47;8.98;;;7.05;;
17436;SDS011;70275;52.198;5.422;2023-06-24T05:32:16;7.65;;;6.05;;
17436;SDS011;70275;52.198;5.422;2023-06-24T05:34:45;6.38;;;5.75;;
17436;SDS011;70275;52.198;5.422;2023-06-24T05:37:14;5.85;;;5.35;;
17436;SDS011;70275;52.198;5.422;2023-06-24T05:39:43;9.25;;;5.63;;
17436;SDS011;70275;52.198;5.422;2023-06-24T05:42:15;6.10;;;5.50;;
17436;SDS011;70275;52.198;5.422;2023-06-24T05:44:44;6.60;;;5.07;;
17436;SDS011;70275;52.198;5.422;2023-06-24T05:47:13;6.30;;;5.68;;
17436;SDS011;70275;52.198;5.422;2023-06-24T05:49:42;7.10;;;5.85;;
17436;SDS011;70275;52.198;5.422;2023-06-24T05:52:11;6.75;;;4.95;;
17436;SDS011;70275;52.198;5.422;2023-06-24T05:54:40;8.07;;;5.40;;
17436;SDS011;70275;52.198;5.422;2023-06-24T05:57:09;7.30;;;5.53;;
17436;SDS011;70275;52.198;5.422;2023-06-24T05:59:41;7.97;;;5.45;;
17436;SDS011;70275;52.198;5.422;2023-06-24T06:02:10;7.97;;;5.00;;
17436;SDS011;70275;52.198;5.422;2023-06-24T06:04:39;6.45;;;5.35;;
17436;SDS011;70275;52.198;5.422;2023-06-24T06:07:08;6.25;;;5.60;;
17436;SDS011;70275;52.198;5.422;2023-06-24T06:09:37;8.55;;;5.18;;
17436;SDS011;70275;52.198;5.422;2023-06-24T06:12:07;5.90;;;5.40;;
17436;SDS011;70275;52.198;5.422;2023-06-24T06:14:37;6.57;;;5.45;;
17436;SDS011;70275;52.198;5.422;2023-06-24T06:17:09;7.85;;;6.05;;
17436;SDS011;70275;52.198;5.422;2023-06-24T06:19:38;7.05;;;5.68;;
17436;SDS011;70275;52.198;5.422;2023-06-24T06:22:07;9.32;;;5.95;;
17436;SDS011;70275;52.198;5.422;2023-06-24T06:24:36;5.70;;;4.88;;
17436;SDS011;70275;52.198;5.422;2023-06-24T06:27:08;8.15;;;5.95;;
17436;SDS011;70275;52.198;5.422;2023-06-24T06:29:41;8.63;;;6.05;;
17436;SDS011;70275;52.198;5.422;2023-06-24T06:32:10;7.78;;;6.10;;
17436;SDS011;70275;52.198;5.422;2023-06-24T06:34:39;7.15;;;6.18;;
17436;SDS011;70275;52.198;5.422;2023-06-24T06:37:08;6.97;;;6.00;;
17436;SDS011;70275;52.198;5.422;2023-06-24T06:39:37;6.00;;;5.40;;
17436;SDS011;70275;52.198;5.422;2023-06-24T06:42:06;7.68;;;6.20;;
17436;SDS011;70275;52.198;5.422;2023-06-24T06:44:35;6.15;;;5.50;;
17436;SDS011;70275;52.198;5.422;2023-06-24T06:47:07;7.80;;;6.00;;
17436;SDS011;70275;52.198;5.422;2023-06-24T06:49:36;8.80;;;6.13;;
17436;SDS011;70275;52.198;5.422;2023-06-24T06:52:06;7.93;;;6.00;;
17436;SDS011;70275;52.198;5.422;2023-06-24T06:54:35;7.57;;;5.68;;
17436;SDS011;70275;52.198;5.422;2023-06-24T06:57:05;7.75;;;5.63;;
17436;SDS011;70275;52.198;5.422;2023-06-24T06:59:34;6.30;;;5.70;;
17436;SDS011;70275;52.198;5.422;2023-06-24T07:02:03;7.47;;;5.90;;
17436;SDS011;70275;52.198;5.422;2023-06-24T07:04:35;7.07;;;5.30;;
17436;SDS011;70275;52.198;5.422;2023-06-24T07:07:04;5.82;;;5.13;;
17436;SDS011;70275;52.198;5.422;2023-06-24T07:09:33;6.63;;;5.43;;
17436;SDS011;70275;52.198;5.422;2023-06-24T07:12:03;6.32;;;5.53;;
17436;SDS011;70275;52.198;5.422;2023-06-24T07:14:34;6.65;;;5.40;;
17436;SDS011;70275;52.198;5.422;2023-06-24T07:17:03;7.07;;;5.43;;
17436;SDS011;70275;52.198;5.422;2023-06-24T07:19:35;5.22;;;4.72;;
17436;SDS011;70275;52.198;5.422;2023-06-24T07:22:04;7.10;;;5.22;;
17436;SDS011;70275;52.198;5.422;2023-06-24T07:24:34;5.15;;;4.65;;
17436;SDS011;70275;52.198;5.422;2023-06-24T07:27:03;5.43;;;4.93;;
17436;SDS011;70275;52.198;5.422;2023-06-24T07:29:32;6.40;;;5.32;;
17436;SDS011;70275;52.198;5.422;2023-06-24T07:32:02;7.78;;;5.57;;
17436;SDS011;70275;52.198;5.422;2023-06-24T07:34:35;6.53;;;5.10;;
17436;SDS011;70275;52.198;5.422;2023-06-24T07:37:04;7.18;;;5.47;;
17436;SDS011;70275;52.198;5.422;2023-06-24T07:39:33;5.20;;;4.60;;
17436;SDS011;70275;52.198;5.422;2023-06-24T07:42:02;5.13;;;4.63;;
17436;SDS011;70275;52.198;5.422;2023-06-24T07:44:32;5.20;;;4.57;;
17436;SDS011;70275;52.198;5.422;2023-06-24T07:47:01;4.57;;;4.18;;
17436;SDS011;70275;52.198;5.422;2023-06-24T07:49:31;4.93;;;4.10;;
17436;SDS011;70275;52.198;5.422;2023-06-24T07:52:03;7.28;;;5.22;;
17436;SDS011;70275;52.198;5.422;2023-06-24T07:54:33;5.82;;;4.40;;
17436;SDS011;70275;52.198;5.422;2023-06-24T07:57:03;7.07;;;4.90;;
17436;SDS011;70275;52.198;5.422;2023-06-24T07:59:32;5.88;;;4.32;;
17436;SDS011;70275;52.198;5.422;2023-06-24T08:02:01;5.32;;;4.82;;
17436;SDS011;70275;52.198;5.422;2023-06-24T08:04:31;5.30;;;4.20;;
17436;SDS011;70275;52.198;5.422;2023-06-24T08:07:03;5.38;;;4.15;;
17436;SDS011;70275;52.198;5.422;2023-06-24T08:09:33;5.60;;;4.22;;
17436;SDS011;70275;52.198;5.422;2023-06-24T08:12:02;4.80;;;4.10;;
17436;SDS011;70275;52.198;5.422;2023-06-24T08:14:32;4.72;;;4.30;;
17436;SDS011;70275;52.198;5.422;2023-06-24T08:17:01;5.88;;;4.57;;
17436;SDS011;70275;52.198;5.422;2023-06-24T08:19:31;5.68;;;4.40;;
17436;SDS011;70275;52.198;5.422;2023-06-24T08:22:03;4.72;;;4.28;;
17436;SDS011;70275;52.198;5.422;2023-06-24T08:24:32;5.20;;;4.43;;
17436;SDS011;70275;52.198;5.422;2023-06-24T08:27:02;5.65;;;4.65;;
17436;SDS011;70275;52.198;5.422;2023-06-24T08:29:31;5.32;;;4.32;;
17436;SDS011;70275;52.198;5.422;2023-06-24T08:32:00;4.97;;;4.47;;
17436;SDS011;70275;52.198;5.422;2023-06-24T08:34:29;6.95;;;4.68;;
17436;SDS011;70275;52.198;5.422;2023-06-24T08:37:01;5.47;;;4.70;;
17436;SDS011;70275;52.198;5.422;2023-06-24T08:39:31;4.90;;;3.92;;
17436;SDS011;70275;52.198;5.422;2023-06-24T08:42:00;5.65;;;4.60;;
17436;SDS011;70275;52.198;5.422;2023-06-24T08:44:29;4.65;;;4.05;;
17436;SDS011;70275;52.198;5.422;2023-06-24T08:46:57;5.60;;;4.38;;
17436;SDS011;70275;52.198;5.422;2023-06-24T08:49:28;5.82;;;4.35;;
17436;SDS011;70275;52.198;5.422;2023-06-24T08:52:02;6.95;;;4.32;;
17436;SDS011;70275;52.198;5.422;2023-06-24T08:54:36;5.25;;;4.18;;
17436;SDS011;70275;52.198;5.422;2023-06-24T08:57:06;5.72;;;4.45;;
17436;SDS011;70275;52.198;5.422;2023-06-24T08:59:41;4.82;;;4.20;;
17436;SDS011;70275;52.198;5.422;2023-06-24T09:02:11;5.22;;;4.28;;
17436;SDS011;70275;52.198;5.422;2023-06-24T09:04:40;4.72;;;3.83;;
17436;SDS011;70275;52.198;5.422;2023-06-24T09:07:12;4.85;;;3.90;;
17436;SDS011;70275;52.198;5.422;2023-06-24T09:09:44;4.60;;;4.20;;
17436;SDS011;70275;52.198;5.422;2023-06-24T09:12:13;5.22;;;4.32;;
17436;SDS011;70275;52.198;5.422;2023-06-24T09:14:47;5.25;;;4.60;;
17436;SDS011;70275;52.198;5.422;2023-06-24T09:17:18;4.88;;;4.47;;
17436;SDS011;70275;52.198;5.422;2023-06-24T09:19:48;6.80;;;4.93;;
17436;SDS011;70275;52.198;5.422;2023-06-24T09:22:21;5.35;;;4.38;;
17436;SDS011;70275;52.198;5.422;2023-06-24T09:24:50;5.03;;;4.63;;
17436;SDS011;70275;52.198;5.422;2023-06-24T09:27:18;5.20;;;4.40;;
17436;SDS011;70275;52.198;5.422;2023-06-24T09:29:49;5.35;;;4.38;;
17436;SDS011;70275;52.198;5.422;2023-06-24T09:32:18;6.63;;;4.72;;
17436;SDS011;70275;52.198;5.422;2023-06-24T09:34:47;9.57;;;5.00;;
17436;SDS011;70275;52.198;5.422;2023-06-24T09:37:24;8.25;;;5.43;;
17436;SDS011;70275;52.198;5.422;2023-06-24T09:39:56;5.20;;;4.63;;
17436;SDS011;70275;52.198;5.422;2023-06-24T09:42:26;5.97;;;5.40;;
17436;SDS011;70275;52.198;5.422;2023-06-24T09:44:55;5.60;;;5.10;;
17436;SDS011;70275;52.198;5.422;2023-06-24T09:47:24;5.65;;;4.70;;
17436;SDS011;70275;52.198;5.422;2023-06-24T09:49:53;6.47;;;4.68;;
17436;SDS011;70275;52.198;5.422;2023-06-24T09:52:25;5.72;;;5.22;;
17436;SDS011;70275;52.198;5.422;2023-06-24T09:54:56;6.38;;;5.78;;
17436;SDS011;70275;52.198;5.422;2023-06-24T09:57:29;5.75;;;4.78;;
17436;SDS011;70275;52.198;5.422;2023-06-24T10:00:03;6.07;;;5.07;;
17436;SDS011;70275;52.198;5.422;2023-06-24T10:02:35;6.82;;;4.90;;
17436;SDS011;70275;52.198;5.422;2023-06-24T10:05:05;5.32;;;4.80;;
17436;SDS011;70275;52.198;5.422;2023-06-24T10:07:37;8.30;;;5.82;;
17436;SDS011;70275;52.198;5.422;2023-06-24T10:10:09;6.63;;;5.95;;
17436;SDS011;70275;52.198;5.422;2023-06-24T10:12:39;6.18;;;5.60;;
17436;SDS011;70275;52.198;5.422;2023-06-24T10:15:09;6.53;;;5.82;;
17436;SDS011;70275;52.198;5.422;2023-06-24T10:17:38;5.80;;;4.70;;
17436;SDS011;70275;52.198;5.422;2023-06-24T10:20:08;6.68;;;6.07;;
17436;SDS011;70275;52.198;5.422;2023-06-24T10:22:40;6.93;;;6.22;;
17436;SDS011;70275;52.198;5.422;2023-06-24T10:25:14;5.75;;;5.20;;
17436;SDS011;70275;52.198;5.422;2023-06-24T10:27:43;5.70;;;5.20;;
17436;SDS011;70275;52.198;5.422;2023-06-24T10:30:16;5.88;;;5.30;;
17436;SDS011;70275;52.198;5.422;2023-06-24T10:32:50;7.75;;;5.90;;
17436;SDS011;70275;52.198;5.422;2023-06-24T10:35:24;6.22;;;5.63;;
17436;SDS011;70275;52.198;5.422;2023-06-24T10:38:00;8.20;;;5.90;;
17436;SDS011;70275;52.198;5.422;2023-06-24T10:40:36;7.70;;;6.28;;
17436;SDS011;70275;52.198;5.422;2023-06-24T10:45:55;6.03;;;5.43;;
17436;SDS011;70275;52.198;5.422;2023-06-24T10:48:26;5.63;;;5.07;;
17436;SDS011;70275;52.198;5.422;2023-06-24T10:50:55;5.97;;;5.38;;
17436;SDS011;70275;52.198;5.422;2023-06-24T10:53:26;5.72;;;5.15;;
17436;SDS011;70275;52.198;5.422;2023-06-24T10:55:56;6.78;;;6.03;;
17436;SDS011;70275;52.198;5.422;2023-06-24T10:58:26;8.65;;;5.70;;
17436;SDS011;70275;52.198;5.422;2023-06-24T11:01:05;5.80;;;5.20;;
17436;SDS011;70275;52.198;5.422;2023-06-24T11:03:36;6.88;;;6.13;;
17436;SDS011;70275;52.198;5.422;2023-06-24T11:06:10;8.00;;;5.93;;
17436;SDS011;70275;52.198;5.422;2023-06-24T11:08:46;7.88;;;5.68;;
17436;SDS011;70275;52.198;5.422;2023-06-24T11:11:21;6.45;;;5.85;;
17436;SDS011;70275;52.198;5.422;2023-06-24T11:13:50;6.60;;;5.35;;
17436;SDS011;70275;52.198;5.422;2023-06-24T11:16:20;6.75;;;5.95;;
17436;SDS011;70275;52.198;5.422;2023-06-24T11:18:50;7.13;;;5.20;;
17436;SDS011;70275;52.198;5.422;2023-06-24T11:21:18;7.20;;;6.32;;
17436;SDS011;70275;52.198;5.422;2023-06-24T11:23:50;6.63;;;6.00;;
17436;SDS011;70275;52.198;5.422;2023-06-24T11:26:19;6.03;;;5.43;;
17436;SDS011;70275;52.198;5.422;2023-06-24T11:28:48;6.82;;;5.82;;
17436;SDS011;70275;52.198;5.422;2023-06-24T11:31:17;6.18;;;5.55;;
17436;SDS011;70275;52.198;5.422;2023-06-24T11:33:48;6.00;;;5.40;;
17436;SDS011;70275;52.198;5.422;2023-06-24T11:36:17;5.70;;;5.13;;
17436;SDS011;70275;52.198;5.422;2023-06-24T11:38:49;5.70;;;5.10;;
17436;SDS011;70275;52.198;5.422;2023-06-24T11:41:20;6.05;;;5.45;;
17436;SDS011;70275;52.198;5.422;2023-06-24T11:43:51;6.68;;;6.07;;
17436;SDS011;70275;52.198;5.422;2023-06-24T11:46:23;8.52;;;7.00;;
17436;SDS011;70275;52.198;5.422;2023-06-24T11:48:57;6.03;;;5.43;;
17436;SDS011;70275;52.198;5.422;2023-06-24T11:51:32;8.73;;;5.05;;
17436;SDS011;70275;52.198;5.422;2023-06-24T11:54:05;6.63;;;4.63;;
17436;SDS011;70275;52.198;5.422;2023-06-24T11:56:34;7.57;;;5.22;;
17436;SDS011;70275;52.198;5.422;2023-06-24T11:59:04;6.70;;;5.55;;
17436;SDS011;70275;52.198;5.422;2023-06-24T12:01:34;7.05;;;6.43;;
17436;SDS011;70275;52.198;5.422;2023-06-24T12:04:09;7.95;;;7.10;;
17436;SDS011;70275;52.198;5.422;2023-06-24T12:06:38;5.93;;;5.32;;
17436;SDS011;70275;52.198;5.422;2023-06-24T12:09:11;6.68;;;5.78;;
17436;SDS011;70275;52.198;5.422;2023-06-24T12:11:41;6.30;;;5.53;;
17436;SDS011;70275;52.198;5.422;2023-06-24T12:14:10;6.70;;;5.97;;
17436;SDS011;70275;52.198;5.422;2023-06-24T12:16:39;7.03;;;6.32;;
17436;SDS011;70275;52.198;5.422;2023-06-24T12:19:08;5.60;;;4.60;;
17436;SDS011;70275;52.198;5.422;2023-06-24T12:21:38;7.93;;;6.03;;
17436;SDS011;70275;52.198;5.422;2023-06-24T12:24:07;5.82;;;5.28;;
17436;SDS011;70275;52.198;5.422;2023-06-24T12:26:40;7.50;;;5.90;;
17436;SDS011;70275;52.198;5.422;2023-06-24T12:29:12;7.70;;;5.63;;
17436;SDS011;70275;52.198;5.422;2023-06-24T12:31:41;7.03;;;5.85;;
17436;SDS011;70275;52.198;5.422;2023-06-24T12:34:10;5.82;;;4.90;;
17436;SDS011;70275;52.198;5.422;2023-06-24T12:36:39;5.65;;;5.10;;
17436;SDS011;70275;52.198;5.422;2023-06-24T12:39:08;5.60;;;5.05;;
17436;SDS011;70275;52.198;5.422;2023-06-24T12:41:37;6.50;;;5.50;;
17436;SDS011;70275;52.198;5.422;2023-06-24T12:44:08;7.60;;;6.88;;
17436;SDS011;70275;52.198;5.422;2023-06-24T12:46:37;6.78;;;6.18;;
17436;SDS011;70275;52.198;5.422;2023-06-24T12:49:06;8.73;;;6.40;;
17436;SDS011;70275;52.198;5.422;2023-06-24T12:51:35;6.72;;;6.03;;
17436;SDS011;70275;52.198;5.422;2023-06-24T12:54:04;6.90;;;5.68;;
17436;SDS011;70275;52.198;5.422;2023-06-24T12:56:33;7.57;;;6.78;;
17436;SDS011;70275;52.198;5.422;2023-06-24T12:59:02;6.95;;;6.25;;
17436;SDS011;70275;52.198;5.422;2023-06-24T13:01:34;7.78;;;6.45;;
17436;SDS011;70275;52.198;5.422;2023-06-24T13:04:03;6.60;;;5.85;;
17436;SDS011;70275;52.198;5.422;2023-06-24T13:06:32;5.53;;;5.03;;
17436;SDS011;70275;52.198;5.422;2023-06-24T13:09:02;6.68;;;6.07;;
17436;SDS011;70275;52.198;5.422;2023-06-24T13:11:31;6.80;;;5.30;;
17436;SDS011;70275;52.198;5.422;2023-06-24T13:14:00;5.57;;;4.85;;
17436;SDS011;70275;52.198;5.422;2023-06-24T13:16:29;5.20;;;4.70;;
17436;SDS011;70275;52.198;5.422;2023-06-24T13:19:00;5.82;;;4.53;;
17436;SDS011;70275;52.198;5.422;2023-06-24T13:21:29;5.43;;;4.72;;
17436;SDS011;70275;52.198;5.422;2023-06-24T13:23:59;4.95;;;4.30;;
17436;SDS011;70275;52.198;5.422;2023-06-24T13:26:27;4.97;;;4.57;;
17436;SDS011;70275;52.198;5.422;2023-06-24T13:28:57;4.95;;;4.45;;
17436;SDS011;70275;52.198;5.422;2023-06-24T13:31:26;7.03;;;5.15;;
17436;SDS011;70275;52.198;5.422;2023-06-24T13:33:55;5.60;;;5.03;;
17436;SDS011;70275;52.198;5.422;2023-06-24T13:36:33;6.13;;;4.78;;
17436;SDS011;70275;52.198;5.422;2023-06-24T13:39:04;5.20;;;4.28;;
17436;SDS011;70275;52.198;5.422;2023-06-24T13:41:37;6.85;;;4.65;;
17436;SDS011;70275;52.198;5.422;2023-06-24T13:44:06;4.57;;;4.18;;
17436;SDS011;70275;52.198;5.422;2023-06-24T13:46:35;5.90;;;4.35;;
17436;SDS011;70275;52.198;5.422;2023-06-24T13:49:04;7.63;;;5.00;;
17436;SDS011;70275;52.198;5.422;2023-06-24T13:51:36;5.03;;;4.22;;
17436;SDS011;70275;52.198;5.422;2023-06-24T13:54:05;5.35;;;4.63;;
17436;SDS011;70275;52.198;5.422;2023-06-24T13:56:34;4.57;;;4.15;;
17436;SDS011;70275;52.198;5.422;2023-06-24T13:59:04;5.13;;;4.32;;
17436;SDS011;70275;52.198;5.422;2023-06-24T14:01:33;5.47;;;4.90;;
17436;SDS011;70275;52.198;5.422;2023-06-24T14:04:03;4.90;;;4.35;;
17436;SDS011;70275;52.198;5.422;2023-06-24T14:06:32;5.60;;;5.10;;
17436;SDS011;70275;52.198;5.422;2023-06-24T14:09:05;5.65;;;5.15;;
17436;SDS011;70275;52.198;5.422;2023-06-24T14:11:34;5.53;;;5.03;;
17436;SDS011;70275;52.198;5.422;2023-06-24T14:14:03;6.85;;;4.95;;
17436;SDS011;70275;52.198;5.422;2023-06-24T14:16:32;5.32;;;4.82;;
17436;SDS011;70275;52.198;5.422;2023-06-24T14:19:01;6.00;;;5.35;;
17436;SDS011;70275;52.198;5.422;2023-06-24T14:21:30;7.30;;;5.47;;
17436;SDS011;70275;52.198;5.422;2023-06-24T14:24:03;5.32;;;4.82;;
17436;SDS011;70275;52.198;5.422;2023-06-24T14:26:36;7.05;;;5.30;;
17436;SDS011;70275;52.198;5.422;2023-06-24T14:29:05;7.90;;;5.75;;
17436;SDS011;70275;52.198;5.422;2023-06-24T14:31:34;6.18;;;5.15;;
17436;SDS011;70275;52.198;5.422;2023-06-24T14:34:03;5.90;;;5.38;;
17436;SDS011;70275;52.198;5.422;2023-06-24T14:36:32;5.35;;;4.85;;
17436;SDS011;70275;52.198;5.422;2023-06-24T14:39:03;6.63;;;5.85;;
17436;SDS011;70275;52.198;5.422;2023-06-24T14:41:33;6.38;;;5.78;;
17436;SDS011;70275;52.198;5.422;2023-06-24T14:44:02;5.35;;;4.78;;
17436;SDS011;70275;52.198;5.422;2023-06-24T14:46:31;6.07;;;5.43;;
17436;SDS011;70275;52.198;5.422;2023-06-24T14:49:00;6.55;;;5.15;;
17436;SDS011;70275;52.198;5.422;2023-06-24T14:51:29;5.35;;;4.85;;
17436;SDS011;70275;52.198;5.422;2023-06-24T14:53:58;5.90;;;5.07;;
17436;SDS011;70275;52.198;5.422;2023-06-24T14:56:29;5.22;;;4.70;;
17436;SDS011;70275;52.198;5.422;2023-06-24T14:58:58;5.50;;;5.00;;
17436;SDS011;70275;52.198;5.422;2023-06-24T15:01:27;6.25;;;5.60;;